createdAt,value
2023-04-15T00:00:48.924Z,100146.94
2023-04-15T00:05:50.243Z,100148.38
2023-04-15T00:10:51.550Z,100146.91
2023-04-15T00:15:53.296Z,100144.09
2023-04-15T00:20:54.667Z,100141.50
2023-04-15T00:25:56.542Z,100147.09
2023-04-15T00:30:58.036Z,100145.16
2023-04-15T00:35:59.391Z,100140.81
2023-04-15T00:41:00.871Z,100138.63
2023-04-15T00:46:03.983Z,100149.84
2023-04-15T00:51:05.443Z,100145.78
2023-04-15T00:56:07.222Z,100140.56
2023-04-15T01:01:08.946Z,100154.69
2023-04-15T01:06:10.818Z,100150.19
2023-04-15T01:11:12.790Z,100140.97
2023-04-15T01:16:14.263Z,100142.66
2023-04-15T01:21:15.685Z,100151.56
2023-04-15T01:26:17.519Z,100147.69
2023-04-15T01:31:18.956Z,100157.63
2023-04-15T01:36:20.300Z,100153.44
2023-04-15T01:41:23.824Z,100161.75
2023-04-15T01:46:25.254Z,100157.34
2023-04-15T01:51:27.456Z,100159.41
2023-04-15T01:56:28.877Z,100152.28
2023-04-15T02:01:30.381Z,100153.25
2023-04-15T02:06:31.802Z,100148.81
2023-04-15T02:11:33.096Z,100148.16
2023-04-15T02:16:34.562Z,100144.78
2023-04-15T02:21:35.948Z,100150.00
2023-04-15T02:26:37.259Z,100160.72
2023-04-15T02:31:40.635Z,100156.31
2023-04-15T02:36:42.050Z,100164.63
2023-04-15T02:41:43.923Z,100171.00
2023-04-15T02:46:46.689Z,100174.69
2023-04-15T02:51:49.580Z,100177.84
2023-04-15T02:56:51.003Z,100179.59
2023-04-15T03:01:52.482Z,100177.97
2023-04-15T03:06:53.857Z,100177.75
2023-04-15T03:11:55.213Z,100176.94
2023-04-15T03:16:56.573Z,100186.41
2023-04-15T03:21:58.043Z,100187.00
2023-04-15T03:26:59.463Z,100188.88
2023-04-15T03:32:01.130Z,100186.06
2023-04-15T03:37:02.415Z,100189.34
2023-04-15T03:42:03.876Z,100199.13
2023-04-15T03:47:05.262Z,100203.47
2023-04-15T03:52:06.602Z,100200.47
2023-04-15T03:57:07.914Z,100204.56
2023-04-15T04:02:09.324Z,100200.13
2023-04-15T04:07:15.064Z,100196.84
2023-04-15T04:12:16.532Z,100198.78
2023-04-15T04:17:17.981Z,100196.22
2023-04-15T04:22:22.292Z,100199.72
2023-04-15T04:27:23.576Z,100210.00
2023-04-15T04:32:25.004Z,100212.03
2023-04-15T04:37:26.576Z,100217.97
2023-04-15T04:42:27.889Z,100219.34
2023-04-15T04:47:30.169Z,100222.19
2023-04-15T04:52:31.581Z,100224.75
2023-04-15T04:57:32.890Z,100225.94
2023-04-15T05:02:34.629Z,100226.47
2023-04-15T05:07:36.236Z,100229.53
2023-04-15T05:12:38.619Z,100229.47
2023-04-15T05:17:40.006Z,100232.66
2023-04-15T05:22:41.552Z,100238.06
2023-04-15T05:27:42.941Z,100237.25
2023-04-15T05:32:44.275Z,100231.38
2023-04-15T05:37:45.929Z,100233.44
2023-04-15T05:42:47.266Z,100241.09
2023-04-15T05:47:50.823Z,100248.00
2023-04-15T05:52:52.312Z,100255.44
2023-04-15T05:57:53.672Z,100254.72
2023-04-15T06:02:56.185Z,100268.94
2023-04-15T06:07:57.667Z,100265.97
2023-04-15T06:12:58.982Z,100275.56
2023-04-15T06:18:00.337Z,100275.25
2023-04-15T06:23:01.970Z,100270.06
2023-04-15T06:28:03.435Z,100277.94
2023-04-15T06:33:06.255Z,100290.03
2023-04-15T06:38:07.567Z,100293.00
2023-04-15T06:43:09.175Z,100280.94
2023-04-15T06:48:10.542Z,100283.13
2023-04-15T06:53:11.887Z,100286.53
2023-04-15T06:58:13.211Z,100282.50
2023-04-15T07:03:15.140Z,100294.47
2023-04-15T07:08:16.557Z,100305.09
2023-04-15T07:13:17.914Z,100282.44
2023-04-15T07:18:19.233Z,100295.75
2023-04-15T07:23:21.187Z,100297.66
2023-04-15T07:28:22.506Z,100306.84
2023-04-15T07:33:23.840Z,100300.69
2023-04-15T07:38:25.842Z,100312.13
2023-04-15T07:43:27.163Z,100310.53
2023-04-15T07:48:28.474Z,100316.19
2023-04-15T07:53:30.350Z,100313.22
2023-04-15T07:58:31.680Z,100316.63
2023-04-15T08:03:33.765Z,100323.75
2023-04-15T08:08:35.653Z,100323.50
2023-04-15T08:13:36.978Z,100327.59
2023-04-15T08:18:38.296Z,100321.56
2023-04-15T08:23:39.782Z,100320.88
2023-04-15T08:28:41.655Z,100333.03
2023-04-15T08:33:42.986Z,100334.63
2023-04-15T08:38:44.656Z,100329.13
2023-04-15T08:43:52.843Z,100340.38
2023-04-15T08:48:56.626Z,100337.34
2023-04-15T08:53:58.313Z,100332.72
2023-04-15T08:59:00.601Z,100336.34
2023-04-15T09:04:03.066Z,100343.47
2023-04-15T09:09:04.465Z,100357.88
2023-04-15T09:14:05.913Z,100351.59
2023-04-15T09:19:34.544Z,100352.91
2023-04-15T09:24:38.181Z,100372.53
2023-04-15T09:29:41.354Z,100384.63
2023-04-15T09:34:42.950Z,100384.31
2023-04-15T09:39:51.969Z,100382.81
2023-04-15T09:44:53.389Z,100383.66
2023-04-15T09:49:58.616Z,100391.38
2023-04-15T09:55:00.807Z,100376.13
2023-04-15T10:00:06.543Z,100389.19
2023-04-15T10:05:10.348Z,100387.25
2023-04-15T10:10:11.718Z,100389.25
2023-04-15T10:15:17.393Z,100387.22
2023-04-15T10:20:19.535Z,100388.94
2023-04-15T10:25:21.484Z,100384.09
2023-04-15T10:30:23.246Z,100385.81
2023-04-15T10:35:24.702Z,100387.50
2023-04-15T10:40:27.695Z,100384.56
2023-04-15T10:45:33.086Z,100382.31
2023-04-15T10:50:34.762Z,100394.41
2023-04-15T10:55:36.086Z,100398.22
2023-04-15T11:00:37.506Z,100378.47
2023-04-15T11:05:42.063Z,100388.56
2023-04-15T11:10:43.422Z,100393.25
2023-04-15T11:15:45.694Z,100407.59
2023-04-15T11:20:48.094Z,100401.88
2023-04-15T11:25:49.487Z,100406.22
2023-04-15T11:30:50.928Z,100418.22
2023-04-15T11:35:53.587Z,100428.59
2023-04-15T11:40:54.930Z,100437.25
2023-04-15T11:45:57.413Z,100446.25
2023-04-15T11:50:59.781Z,100458.59
2023-04-15T11:56:01.456Z,100467.63
2023-04-15T12:01:02.897Z,100469.13
2023-04-15T12:06:11.566Z,100478.91
2023-04-15T12:11:12.901Z,100496.91
2023-04-15T12:16:18.644Z,100508.97
2023-04-15T12:21:20.610Z,100516.22
2023-04-15T12:26:29.116Z,100513.97
2023-04-15T12:31:30.849Z,100527.91
2023-04-15T12:36:36.270Z,100541.31
2023-04-15T12:41:37.957Z,100544.03
2023-04-15T12:46:39.304Z,100554.44
2023-04-15T12:51:40.855Z,100567.19
2023-04-15T12:56:42.304Z,100578.06
2023-04-15T13:01:43.985Z,100597.38
2023-04-15T13:06:45.373Z,100592.44
2023-04-15T13:11:46.730Z,100603.41
2023-04-15T13:16:48.222Z,100612.59
2023-04-15T13:21:49.618Z,100613.19
2023-04-15T13:26:51.018Z,100623.25
2023-04-15T13:31:52.476Z,100623.56
2023-04-15T13:36:53.951Z,100636.56
2023-04-15T13:41:55.992Z,100643.09
2023-04-15T13:46:57.411Z,100647.63
2023-04-15T13:51:58.718Z,100657.84
2023-04-15T13:57:00.027Z,100649.47
2023-04-15T14:02:01.573Z,100659.31
2023-04-15T14:07:05.074Z,100668.69
2023-04-15T14:12:06.727Z,100676.06
2023-04-15T14:17:08.058Z,100692.41
2023-04-15T14:22:09.371Z,100698.41
2023-04-15T14:27:12.579Z,100694.44
2023-04-15T14:32:15.227Z,100700.44
2023-04-15T14:37:17.531Z,100713.22
2023-04-15T14:42:18.914Z,100706.19
2023-04-15T14:47:20.297Z,100705.31
2023-04-15T14:52:21.742Z,100722.66
2023-04-15T14:57:23.109Z,100735.63
2023-04-15T15:02:37.553Z,100744.72
2023-04-15T15:07:42.778Z,100743.03
2023-04-15T15:12:44.068Z,100755.13
2023-04-15T15:17:45.416Z,100763.06
2023-04-15T15:22:46.733Z,100768.97
2023-04-15T15:27:48.822Z,100777.13
2023-04-15T15:32:50.287Z,100787.03
2023-04-15T15:37:52.413Z,100796.81
2023-04-15T15:42:53.781Z,100798.47
2023-04-15T15:47:57.091Z,100807.59
2023-04-15T15:52:58.751Z,100815.97
2023-04-15T15:58:00.258Z,100822.00
2023-04-15T16:03:07.188Z,100824.97
2023-04-15T16:08:09.200Z,100829.72
2023-04-15T16:13:10.743Z,100835.94
2023-04-15T16:18:13.814Z,100844.53
2023-04-15T16:23:16.539Z,100850.00
2023-04-15T16:28:26.324Z,100861.63
2023-04-15T16:33:28.539Z,100853.94
2023-04-15T16:38:30.461Z,100867.16
2023-04-15T16:43:31.775Z,100876.06
2023-04-15T16:48:33.112Z,100881.16
2023-04-15T16:53:34.517Z,100891.59
2023-04-15T16:58:35.827Z,100890.00
2023-04-15T17:03:37.501Z,100902.31
2023-04-15T17:08:38.846Z,100906.91
2023-04-15T17:13:40.336Z,100917.66
2023-04-15T17:18:41.733Z,100924.41
2023-04-15T17:23:43.089Z,100928.00
2023-04-15T17:28:44.738Z,100943.66
2023-04-15T17:33:58.807Z,100947.09
2023-04-15T17:39:07.679Z,100954.38
2023-04-15T17:44:09.085Z,100952.56
2023-04-15T17:49:10.396Z,100964.00
2023-04-15T17:54:11.712Z,100975.78
2023-04-15T17:59:13.107Z,100982.34
2023-04-15T18:04:14.556Z,100987.22
2023-04-15T18:09:16.044Z,100985.75
2023-04-15T18:14:30.563Z,100989.72
2023-04-15T18:19:34.621Z,100990.16
2023-04-15T18:24:36.037Z,101004.63
2023-04-15T18:29:37.357Z,101000.41
2023-04-15T18:34:38.758Z,101015.59
2023-04-15T18:39:40.320Z,101030.44
2023-04-15T18:44:41.624Z,101033.28
2023-04-15T18:49:43.045Z,101043.63
2023-04-15T18:54:44.355Z,101050.00
2023-04-15T18:59:45.922Z,101058.88
2023-04-15T19:04:47.277Z,101064.94
2023-04-15T19:09:48.617Z,101080.59
2023-04-15T19:14:49.931Z,101093.22
2023-04-15T19:19:51.487Z,101105.97
2023-04-15T19:24:52.844Z,101104.84
2023-04-15T19:29:54.247Z,101117.41
2023-04-15T19:34:55.590Z,101117.25
2023-04-15T19:39:56.891Z,101125.41
2023-04-15T19:44:58.270Z,101133.41
2023-04-15T19:49:59.640Z,101131.66
2023-04-15T19:55:01.044Z,101139.13
2023-04-15T20:00:02.368Z,101154.41
2023-04-15T20:05:03.785Z,101155.25
2023-04-15T20:10:08.633Z,101156.53
2023-04-15T20:15:14.491Z,101153.44
2023-04-15T20:20:16.420Z,101158.31
2023-04-15T20:25:17.894Z,101156.19
2023-04-15T20:30:19.214Z,101159.59
2023-04-15T20:35:20.717Z,101167.28
2023-04-15T20:40:22.939Z,101163.06
2023-04-15T20:45:24.277Z,101174.47
2023-04-15T20:50:25.806Z,101176.13
2023-04-15T20:55:28.366Z,101173.50
2023-04-15T21:00:33.008Z,101178.56
2023-04-15T21:05:34.353Z,101181.84
2023-04-15T21:10:35.874Z,101195.19
2023-04-15T21:15:37.226Z,101193.56
2023-04-15T21:20:38.671Z,101199.28
2023-04-15T21:25:40.014Z,101204.13
2023-04-15T21:30:41.317Z,101202.00
2023-04-15T21:35:42.633Z,101214.22
2023-04-15T21:40:43.938Z,101217.31
2023-04-15T21:46:20.749Z,101214.06
2023-04-15T21:51:06.742Z,101221.88
2023-04-15T21:56:08.765Z,101230.19
2023-04-15T22:01:10.140Z,101231.97
2023-04-15T22:06:13.547Z,101238.66
2023-04-15T22:11:27.148Z,101252.97
2023-04-15T22:16:29.250Z,101254.25
2023-04-15T22:21:30.621Z,101252.47
2023-04-15T22:26:31.938Z,101262.69
2023-04-15T22:31:33.264Z,101266.28
2023-04-15T22:36:34.586Z,101270.84
2023-04-15T22:41:35.940Z,101263.69
2023-04-15T22:46:38.304Z,101277.19
2023-04-15T22:51:39.683Z,101282.88
2023-04-15T22:56:40.992Z,101290.50
2023-04-15T23:01:42.332Z,101295.06
2023-04-15T23:06:43.655Z,101295.41
2023-04-15T23:11:44.966Z,101294.91
2023-04-15T23:16:46.347Z,101299.63
2023-04-15T23:21:47.686Z,101306.78
2023-04-15T23:26:49.020Z,101306.47
2023-04-15T23:31:50.370Z,101315.56
2023-04-15T23:36:51.693Z,101318.81
2023-04-15T23:41:53.236Z,101317.00
2023-04-15T23:46:54.597Z,101310.00
2023-04-15T23:51:57.096Z,101323.00
2023-04-15T23:56:58.448Z,101324.94
